createdAt,value
2018-12-30T00:04:19.432Z,81.38
2018-12-30T00:09:23.500Z,80.83
2018-12-30T00:14:27.356Z,81.25
2018-12-30T00:19:31.280Z,82.05
2018-12-30T00:24:35.070Z,83.62
2018-12-30T00:29:38.832Z,83.54
2018-12-30T00:34:42.747Z,83.53
2018-12-30T00:39:46.500Z,83.71
2018-12-30T00:44:50.262Z,83.26
2018-12-30T00:49:54.014Z,84.22
2018-12-30T00:54:57.833Z,85.66
2018-12-30T01:00:01.967Z,85.98
2018-12-30T01:05:06.496Z,87.05
2018-12-30T01:10:10.227Z,86.91
2018-12-30T01:15:14.079Z,86.77
2018-12-30T01:20:17.812Z,87.06
2018-12-30T01:25:21.638Z,88.37
2018-12-30T01:30:25.366Z,88.83
2018-12-30T01:35:29.130Z,90.21
2018-12-30T01:40:32.971Z,91.54
2018-12-30T01:45:36.720Z,92.46
2018-12-30T01:50:40.592Z,92.94
2018-12-30T01:55:44.738Z,93.08
2018-12-30T02:00:48.601Z,93.22
2018-12-30T02:05:52.843Z,93.18
2018-12-30T02:10:56.575Z,93.10
2018-12-30T02:16:00.337Z,93.21
2018-12-30T02:21:04.184Z,93.37
2018-12-30T02:26:07.922Z,93.44
2018-12-30T02:31:11.783Z,93.57
2018-12-30T02:36:15.602Z,93.80
2018-12-30T02:41:19.506Z,93.79
2018-12-30T02:46:23.267Z,93.92
2018-12-30T02:51:27.136Z,93.74
2018-12-30T02:56:30.970Z,93.68
2018-12-30T03:01:34.731Z,93.72
2018-12-30T03:06:38.513Z,93.71
2018-12-30T03:11:42.449Z,93.91
2018-12-30T03:16:46.184Z,93.96
2018-12-30T03:21:50.106Z,94.08
2018-12-30T03:26:53.853Z,94.26
2018-12-30T03:31:57.604Z,94.43
2018-12-30T03:37:01.371Z,94.50
2018-12-30T03:42:05.265Z,94.78
2018-12-30T03:47:09.170Z,95.03
2018-12-30T03:52:13.150Z,95.26
2018-12-30T03:57:16.975Z,95.50
2018-12-30T04:02:21.029Z,95.78
2018-12-30T04:07:24.931Z,95.98
2018-12-30T04:12:28.923Z,96.21
2018-12-30T04:17:33.022Z,96.41
2018-12-30T04:22:36.998Z,96.55
2018-12-30T04:27:40.961Z,96.75
2018-12-30T04:32:45.040Z,96.88
2018-12-30T04:37:48.818Z,96.91
2018-12-30T04:42:52.979Z,96.68
2018-12-30T04:47:56.767Z,96.36
2018-12-30T04:53:00.789Z,96.21
2018-12-30T04:58:04.773Z,95.72
2018-12-30T05:03:08.536Z,94.44
2018-12-30T05:08:12.507Z,93.55
2018-12-30T05:13:16.389Z,93.27
2018-12-30T05:18:20.281Z,92.74
2018-12-30T05:23:24.523Z,92.44
2018-12-30T05:28:28.417Z,92.01
2018-12-30T05:33:32.478Z,92.03
2018-12-30T05:38:36.398Z,91.92
2018-12-30T05:43:40.357Z,91.82
2018-12-30T05:48:44.452Z,92.59
2018-12-30T05:53:48.457Z,92.66
2018-12-30T05:58:52.395Z,92.60
2018-12-30T06:03:56.309Z,91.74
2018-12-30T06:09:00.376Z,91.37
2018-12-30T06:14:04.213Z,92.27
2018-12-30T06:19:08.165Z,93.30
2018-12-30T06:24:12.236Z,93.40
2018-12-30T06:29:16.097Z,92.55
2018-12-30T06:34:20.074Z,88.76
2018-12-30T06:39:24.051Z,82.85
2018-12-30T06:44:28.086Z,77.26
2018-12-30T06:49:32.214Z,75.86
2018-12-30T06:54:36.168Z,72.65
2018-12-30T06:59:40.356Z,73.90
2018-12-30T07:04:44.323Z,80.94
2018-12-30T07:09:48.234Z,81.19
2018-12-30T07:14:52.373Z,80.38
2018-12-30T07:19:56.383Z,80.17
2018-12-30T07:25:00.243Z,81.66
2018-12-30T07:30:04.400Z,79.79
2018-12-30T07:35:08.212Z,79.52
2018-12-30T07:40:12.026Z,78.29
2018-12-30T07:45:15.955Z,78.51
2018-12-30T07:50:19.829Z,77.22
2018-12-30T07:55:23.966Z,76.55
2018-12-30T08:00:28.053Z,79.12
2018-12-30T08:05:31.957Z,80.53
2018-12-30T08:10:35.708Z,80.91
2018-12-30T08:15:39.469Z,80.34
2018-12-30T08:20:43.337Z,78.47
2018-12-30T08:25:47.115Z,83.11
2018-12-30T08:30:50.861Z,79.86
2018-12-30T08:35:54.729Z,79.39
2018-12-30T08:40:58.504Z,81.29
2018-12-30T08:46:02.322Z,80.31
2018-12-30T08:51:06.146Z,78.92
2018-12-30T08:56:09.912Z,78.51
2018-12-30T09:01:13.874Z,78.66
2018-12-30T09:06:17.797Z,78.75
2018-12-30T09:11:21.649Z,79.66
2018-12-30T09:16:25.383Z,79.93
2018-12-30T09:21:29.124Z,79.28
2018-12-30T09:26:32.858Z,79.14
2018-12-30T09:31:36.611Z,78.22
2018-12-30T09:36:40.354Z,78.11
2018-12-30T09:41:44.168Z,78.01
2018-12-30T09:46:47.915Z,78.27
2018-12-30T09:51:51.681Z,76.80
2018-12-30T09:56:55.443Z,78.69
2018-12-30T10:01:59.297Z,78.24
2018-12-30T10:07:03.035Z,78.15
2018-12-30T10:12:06.778Z,78.78
2018-12-30T10:17:10.549Z,80.44
2018-12-30T10:22:14.398Z,79.96
2018-12-30T10:27:18.225Z,78.53
2018-12-30T10:32:22.036Z,78.18
2018-12-30T10:37:25.895Z,78.68
2018-12-30T10:42:29.681Z,77.71
2018-12-30T10:47:33.548Z,77.98
2018-12-30T10:52:37.416Z,78.50
2018-12-30T10:57:41.180Z,77.47
2018-12-30T11:02:44.952Z,77.30
2018-12-30T11:07:48.710Z,76.93
2018-12-30T11:12:52.680Z,76.87
2018-12-30T11:17:56.497Z,77.18
2018-12-30T11:23:00.327Z,76.13
2018-12-30T11:28:04.255Z,76.06
2018-12-30T11:33:08.038Z,77.74
2018-12-30T11:38:12.039Z,76.71
2018-12-30T11:43:15.960Z,75.81
2018-12-30T11:48:19.746Z,75.40
2018-12-30T11:53:23.531Z,76.28
2018-12-30T11:58:27.585Z,76.25
2018-12-30T12:03:31.458Z,76.83
2018-12-30T12:08:35.339Z,77.03
2018-12-30T12:13:39.201Z,78.30
2018-12-30T12:18:42.948Z,78.91
2018-12-30T12:23:46.724Z,78.16
2018-12-30T12:28:50.809Z,77.41
2018-12-30T12:33:54.640Z,77.55
2018-12-30T12:38:58.383Z,76.25
2018-12-30T12:44:02.218Z,76.68
2018-12-30T12:49:06.046Z,75.77
2018-12-30T12:54:09.829Z,75.94
2018-12-30T12:59:13.609Z,76.51
2018-12-30T13:04:17.520Z,75.26
2018-12-30T13:09:21.397Z,73.64
2018-12-30T13:14:25.223Z,73.24
2018-12-30T13:19:29.007Z,72.52
2018-12-30T13:24:39.677Z,74.20
2018-12-30T13:29:38.420Z,73.14
2018-12-30T13:34:42.336Z,73.31
2018-12-30T13:39:46.148Z,74.06
2018-12-30T13:44:50.043Z,74.23
2018-12-30T13:49:53.898Z,73.05
2018-12-30T13:54:57.710Z,72.65
2018-12-30T14:00:02.516Z,73.84
2018-12-30T14:05:06.470Z,72.75
2018-12-30T14:10:10.388Z,73.46
2018-12-30T14:15:14.987Z,73.45
2018-12-30T14:20:18.708Z,72.08
2018-12-30T14:25:22.521Z,72.49
2018-12-30T14:30:26.267Z,72.16
2018-12-30T14:35:30.094Z,71.82
2018-12-30T14:40:33.991Z,73.00
2018-12-30T14:45:37.715Z,73.36
2018-12-30T14:50:41.598Z,72.52
2018-12-30T14:55:45.341Z,73.12
2018-12-30T15:00:49.270Z,73.04
2018-12-30T15:05:54.788Z,73.05
2018-12-30T15:10:58.656Z,72.83
2018-12-30T15:16:02.383Z,72.97
2018-12-30T15:21:06.329Z,73.12
2018-12-30T15:26:10.060Z,72.74
2018-12-30T15:31:13.815Z,72.71
2018-12-30T15:36:17.646Z,73.04
2018-12-30T15:41:21.401Z,73.29
2018-12-30T15:46:25.141Z,73.80
2018-12-30T15:51:28.948Z,73.67
2018-12-30T15:56:32.700Z,73.22
2018-12-30T16:01:36.470Z,72.98
2018-12-30T16:06:40.247Z,73.27
2018-12-30T16:11:44.084Z,72.92
2018-12-30T16:16:47.950Z,72.50
2018-12-30T16:21:51.720Z,72.58
2018-12-30T16:26:55.475Z,73.12
2018-12-30T16:31:59.214Z,72.68
2018-12-30T16:37:03.017Z,72.71
2018-12-30T16:42:06.745Z,72.57
2018-12-30T16:47:10.587Z,72.80
2018-12-30T16:52:14.330Z,72.72
2018-12-30T16:57:18.178Z,73.02
2018-12-30T17:02:22.014Z,72.95
2018-12-30T17:07:25.800Z,72.86
2018-12-30T17:12:29.548Z,72.76
2018-12-30T17:17:33.337Z,72.90
2018-12-30T17:22:37.075Z,72.87
2018-12-30T17:27:40.843Z,73.08
2018-12-30T17:32:44.588Z,72.57
2018-12-30T17:37:48.385Z,72.80
2018-12-30T17:42:52.175Z,72.61
2018-12-30T17:47:55.938Z,72.83
2018-12-30T17:52:59.775Z,72.63
2018-12-30T17:58:03.518Z,73.06
2018-12-30T18:03:07.271Z,72.65
2018-12-30T18:08:11.025Z,73.00
2018-12-30T18:13:14.791Z,73.17
2018-12-30T18:18:18.606Z,72.89
2018-12-30T18:23:22.371Z,73.25
2018-12-30T18:28:26.258Z,73.67
2018-12-30T18:33:30.124Z,73.73
2018-12-30T18:38:33.922Z,73.78
2018-12-30T18:43:37.655Z,73.69
2018-12-30T18:48:41.487Z,73.28
2018-12-30T18:53:45.304Z,74.42
2018-12-30T18:58:49.141Z,74.41
2018-12-30T19:03:53.019Z,74.00
2018-12-30T19:08:56.801Z,74.00
2018-12-30T19:14:00.590Z,74.50
2018-12-30T19:19:04.485Z,74.86
2018-12-30T19:24:08.316Z,75.04
2018-12-30T19:29:12.128Z,75.38
2018-12-30T19:34:15.977Z,74.94
2018-12-30T19:39:19.877Z,74.91
2018-12-30T19:44:23.631Z,75.23
2018-12-30T19:49:27.464Z,74.97
2018-12-30T19:54:31.223Z,75.65
2018-12-30T19:59:35.109Z,76.19
2018-12-30T20:04:40.836Z,76.43
2018-12-30T20:09:44.601Z,76.59
2018-12-30T20:14:48.387Z,77.01
2018-12-30T20:19:52.175Z,77.17
2018-12-30T20:24:56.020Z,77.56
2018-12-30T20:30:03.172Z,78.34
2018-12-30T20:35:07.205Z,78.91
2018-12-30T20:40:11.136Z,79.10
2018-12-30T20:45:14.905Z,79.25
2018-12-30T20:50:18.674Z,79.48
2018-12-30T20:55:22.434Z,79.82
2018-12-30T21:00:26.280Z,79.84
2018-12-30T21:05:30.067Z,79.95
2018-12-30T21:10:33.851Z,79.68
2018-12-30T21:15:37.666Z,79.83
2018-12-30T21:20:41.462Z,79.98
2018-12-30T21:25:45.227Z,79.64
2018-12-30T21:30:48.962Z,79.22
2018-12-30T21:35:52.741Z,79.67
2018-12-30T21:40:59.615Z,79.85
2018-12-30T21:46:03.354Z,79.79
2018-12-30T21:51:07.177Z,80.17
2018-12-30T21:56:10.964Z,80.07
2018-12-30T22:01:14.904Z,80.32
2018-12-30T22:06:18.738Z,80.30
2018-12-30T22:11:22.642Z,80.63
2018-12-30T22:16:26.486Z,80.63
2018-12-30T22:21:30.364Z,80.05
2018-12-30T22:26:34.250Z,79.18
2018-12-30T22:31:38.249Z,78.89
2018-12-30T22:36:42.073Z,79.24
2018-12-30T22:41:45.932Z,79.66
2018-12-30T22:46:49.826Z,79.67
2018-12-30T22:51:53.683Z,79.17
2018-12-30T22:56:57.608Z,78.93
2018-12-30T23:02:01.712Z,79.06
2018-12-30T23:07:05.644Z,79.70
2018-12-30T23:12:09.507Z,79.99
2018-12-30T23:17:13.389Z,79.50
2018-12-30T23:22:17.191Z,79.94
2018-12-30T23:27:21.059Z,80.32
2018-12-30T23:32:24.916Z,80.87
2018-12-30T23:37:28.747Z,81.49
2018-12-30T23:42:32.498Z,81.93
2018-12-30T23:47:36.268Z,81.63
2018-12-30T23:52:40.090Z,81.39
2018-12-30T23:57:43.833Z,81.28
